»·PEaware :: N5002T KOXR-KBUR

N5002T :: KOXR-KBUR

FLIGHT INFORMATION

Flight Status: Arrived
Operator: Privately registered:
United States
More flights under this callsign
Pilot: Hunter M. (19355)
Aircraft: CESSNA 172 SKYHAWK
(C172)
More flights by this aircraft type
Origin: KOXR Oxnard
United States
Destination: KBUR Bob Hope-Burbank
United States
More flights between these airports :: More routes between these airports
Route: VTU054 TOAKS
File this flight plan on PilotEdge
Remarks: None
Altitude:
(Current/Filed)
5,000ft
Speed:
(Current/Filed)
118kts
Departed: 17-Mar-19 02:45 PM
Arrived: 17-Mar-19 03:20 PM
Distance/Time
Traveled:
42nm/0:35
Distance/Time
To Go:
Arrived

Flight Plot

Page will automatically refresh every two minutes.


Map Options




Map Legend


Flown Route
Filed Route
Departure Airport
Arrival Airport
Navaid (VOR, NDB)
Fix

Horizontal Profiles

Position Reports

Time Latitude Longitude Heading Altitude Ground
Speed
17-Mar-19 14:02 34.198097 -119.200892 269 46ft 0kts
17-Mar-19 14:03 34.198097 -119.200892 269 46ft 0kts
17-Mar-19 14:04 34.198097 -119.200892 269 46ft 0kts
17-Mar-19 14:05 34.198097 -119.200892 269 46ft 0kts
17-Mar-19 14:06 34.198097 -119.200892 269 46ft 0kts
17-Mar-19 14:07 34.198097 -119.200892 269 46ft 0kts
17-Mar-19 14:08 34.198097 -119.200892 269 46ft 0kts
17-Mar-19 14:09 34.198097 -119.200892 269 46ft 0kts
17-Mar-19 14:10 34.198097 -119.200892 269 46ft 0kts
17-Mar-19 14:11 34.198097 -119.200892 269 46ft 0kts
17-Mar-19 14:12 34.198097 -119.200892 269 46ft 0kts
17-Mar-19 14:13 34.198097 -119.200892 269 46ft 0kts
17-Mar-19 14:14 34.198097 -119.200892 269 46ft 0kts
17-Mar-19 14:15 34.198097 -119.200892 269 46ft 0kts
17-Mar-19 14:16 34.198097 -119.200892 269 46ft 0kts
17-Mar-19 14:17 34.198097 -119.200892 269 46ft 0kts
17-Mar-19 14:18 34.198097 -119.200892 269 46ft 0kts
17-Mar-19 14:19 34.198097 -119.200892 269 46ft 0kts
17-Mar-19 14:20 34.198097 -119.200892 269 46ft 0kts
17-Mar-19 14:21 34.198097 -119.200892 269 46ft 0kts
17-Mar-19 14:22 34.198097 -119.200892 269 46ft 0kts
17-Mar-19 14:23 34.198097 -119.200892 269 46ft 0kts
17-Mar-19 14:24 34.198097 -119.200892 269 46ft 0kts
17-Mar-19 14:25 34.198097 -119.200892 269 46ft 0kts
17-Mar-19 14:26 34.198097 -119.200892 269 46ft 0kts
17-Mar-19 14:27 34.198097 -119.200892 269 46ft 0kts
17-Mar-19 14:28 34.198097 -119.200892 269 46ft 0kts
17-Mar-19 14:29 34.198097 -119.200892 269 46ft 0kts
17-Mar-19 14:30 34.198097 -119.200892 269 46ft 0kts
17-Mar-19 14:31 34.198097 -119.200892 269 46ft 0kts
17-Mar-19 14:32 34.198097 -119.200901 271 46ft 1kts
17-Mar-19 14:33 34.199518 -119.198173 19 46ft 0kts
17-Mar-19 14:34 34.199996 -119.198118 1 46ft 0kts
17-Mar-19 14:35 34.199997 -119.198117 1 46ft 0kts
17-Mar-19 14:36 34.199998 -119.198117 1 46ft 0kts
17-Mar-19 14:37 34.199999 -119.198117 1 46ft 0kts
17-Mar-19 14:38 34.199999 -119.198117 1 46ft 0kts
17-Mar-19 14:39 34.200000 -119.198117 1 46ft 0kts
17-Mar-19 14:40 34.200001 -119.198117 1 46ft 0kts
17-Mar-19 14:41 34.200001 -119.198117 1 46ft 0kts
17-Mar-19 14:42 34.200002 -119.198117 1 46ft 0kts
17-Mar-19 14:43 34.200086 -119.198115 1 46ft 6kts
17-Mar-19 14:44 34.200741 -119.208200 268 117ft 85kts
17-Mar-19 14:45 34.199363 -119.237260 266 1001ft 84kts
17-Mar-19 14:46 34.198330 -119.265872 264 1817ft 86kts
17-Mar-19 14:47 34.196324 -119.293924 264 2663ft 80kts
17-Mar-19 14:48 34.193041 -119.319908 263 3513ft 74kts
17-Mar-19 14:49 34.189389 -119.345794 264 4057ft 95kts
17-Mar-19 14:50 34.195659 -119.368836 19 4640ft 88kts
17-Mar-19 14:51 34.196536 -119.339630 104 5042ft 114kts
17-Mar-19 14:52 34.187464 -119.301817 103 4997ft 116kts
17-Mar-19 14:53 34.178435 -119.264218 103 5000ft 116kts
17-Mar-19 14:54 34.169434 -119.226550 104 5000ft 116kts
17-Mar-19 14:55 34.160683 -119.188923 103 5000ft 116kts
17-Mar-19 14:56 34.152058 -119.151328 103 4999ft 116kts
17-Mar-19 14:57 34.143518 -119.113546 103 5000ft 116kts
17-Mar-19 14:58 34.135123 -119.075821 103 5000ft 116kts
17-Mar-19 14:59 34.126745 -119.038036 103 5002ft 116kts
17-Mar-19 15:00 34.134262 -119.001876 67 5004ft 113kts
17-Mar-19 15:02 34.144227 -118.966046 67 5002ft 112kts
17-Mar-19 15:03 34.154222 -118.930250 67 5001ft 112kts
17-Mar-19 15:04 34.164325 -118.894321 66 5003ft 113kts
17-Mar-19 15:05 34.174590 -118.858138 66 5001ft 114kts
17-Mar-19 15:06 34.184948 -118.821933 66 5002ft 113kts
17-Mar-19 15:07 34.195448 -118.785615 66 4615ft 115kts
17-Mar-19 15:08 34.202368 -118.747661 86 4046ft 116kts
17-Mar-19 15:09 34.201993 -118.711568 89 3909ft 108kts
17-Mar-19 15:10 34.201669 -118.675809 86 3682ft 97kts
17-Mar-19 15:11 34.201550 -118.643808 87 3709ft 97kts
17-Mar-19 15:12 34.201090 -118.610743 87 3699ft 98kts
17-Mar-19 15:13 34.200622 -118.577539 88 3690ft 99kts
17-Mar-19 15:14 34.200154 -118.540947 89 3235ft 113kts
17-Mar-19 15:15 34.199636 -118.504018 89 2948ft 103kts
17-Mar-19 15:16 34.199118 -118.470022 85 2540ft 99kts
17-Mar-19 15:17 34.198840 -118.438784 87 2012ft 88kts
17-Mar-19 15:18 34.198223 -118.409078 90 1457ft 80kts
17-Mar-19 15:19 34.198163 -118.383843 88 1084ft 73kts
17-Mar-19 15:20 34.197773 -118.361225 89 781ft 36kts
17-Mar-19 15:20 34.196939 -118.360259 168 781ft 0kts
17-Mar-19 15:21 34.195828 -118.360289 182 781ft 0kts

Navigation Log

Ident Type
Flight plan parsing failed, navigation log unavailable